Share

Leesburg, GA

Southwest Georgia Regional (KABY) Elev 194 ft | 31.54 °N, 84.19 °W | Change Station
Active Advisory: Areal Flood Watch

Current weather conditions updated 14 minutes ago

Overcast
Overcast
67 °F
Feels Like 67 °F
N
8
Wind Variable Wind from East
Sunrise 7:05 AM
Sunset 8:06 PM
Moon Waning Gibbous

Tomorrow is forecast to be Much Cooler than today. Rain, heavy at times.

Pressure 30.28 in
Visibility 10.0 miles
Clouds Overcast 3400 ft
Dew Point 53 °F
Humidity 61%
Rainfall 0.00 in
Snow Depth Not available.
UV 2 out of 16
Pollen 9.60 out of 12
Air Quality Not available.
Flu Activity Sporadic
METAR KABY 172053Z 09007KT 10SM OVC034 19/12 A3028 RMK AO2 SLP254 T01940117 56018

More Conditions Fewer Conditions

Pressure 30.28 in
Visibility 10.0 miles
Clouds Overcast 3400 ft
Dew Point 53 °F
Humidity 61%
Rainfall 0.00 in
Snow Depth Not available.
UV 2 out of 16
Pollen 9.60 out of 12
Air Quality Not available.
Flu Activity Sporadic
METAR KABY 172053Z 09007KT 10SM OVC034 19/12 A3028 RMK AO2 SLP254 T01940117 56018

More Conditions Fewer Conditions

10-Day Forecast

Almanac

Astronomy

Apr. 17, 2014 Rise Set
Actual Time 7:05 AM EDT 8:06 PM EDT
Civil Twilight 6:40 AM EDT 8:32 PM EDT
Nautical Twilight 6:11 AM EDT 9:01 PM EDT
Astronomical Twilight 5:40 AM EDT 9:32 PM EDT
Moon 10:44 PM EDT 8:43 AM EDT
Length of Visible Light 13h 51m
Length of Day
13h 01m
Tomorrow will be 1m 49s longer.
Waning Gibbous, 92% of the Moon is Illuminated
Today
Waning Gibbous
Apr 22
Last Quarter
Apr 29
New
May 6
First Quarter
May 14
Full

Today's Extremes

State Highs State Lows

Community

  • Morning Light
    Morning Light
  • New Day
    New Day
  • Lake Michigan Sunrise
    Lake Michigan Sunrise
  • sunset from izmir, narlıdere
    sunset from izmir, narlıdere
  • oregon cherry
    oregon cherry

WunderPhotos

Upload Photos

1,702,123 photos uploaded!

Nearby

Snow Depth

Station Depth Elevation
No new snow has been reported.

Coastal Water Temperatures

Place Temperature
No Stations Reporting

Earthquake Activity

City Distance Mag. Time & Date
No recent earthquake activity has been reported nearby.
Minimum magnitude displayed is 2.5.

Nearby Weather Stations

Station Location Temp. Dew Point Humidity Wind Precip. Elev Updated Type
Worth County High School, Sylvester, GA 66.3 °F 53 °F 62% SE  at  8.0 mph 0.00 in / hr 443 ft 5:00 PM EDT Normal
Cobb, Cobb, GA 67.7 °F 52 °F 58% SSW  at  3.0 mph 0.00 in / hr 243 ft 4:55 PM EDT Normal

Show More Stations Show Fewer Stations

What do you think?

We're not finished. Please let us know what you like, what you don't like, and what you are still missing.